Adams, OR

3:49 PM PDT on October 20, 2014 (GMT -0700)
APRSWXNET Athena OR US | Change Station
CLOSE
Current Station
Personal Weather Station
Location: Athena, OR
Elevation: 1735 ft
Nearby Weather Stations

Elev 1735 ft 45.82 °N, 118.49 °W | Updated 41 minutes ago

Mostly Cloudy
Mostly Cloudy
66 °F
Feels Like 66 °F
N
7
Wind Variable Wind from NW
Gusts 14.0 mph

Today
High -- | Low -- °F
--% Chance of Precip.
Yesterday
High -- | Low -- °F
Precip. -- in
7:17 AM 5:59 PM
Waning Crescent, 9% visible
Pressure 29.74 in
Visibility 10.0 miles
Clouds Mostly Cloudy 10000 ft
Dew Point 49 °F
Humidity 55%
Rainfall 0.00 in
Snow Depth 2 in
UV 1 out of 12
Pollen 2.90 out of 12
Air Quality Not available.
Flu Activity Sporadic
METAR KPDT 202153Z 28010KT 10SM BKN100 19/09 A2975 RMK AO2 SLP069 T01940089

More Conditions Fewer Conditions

Pressure 29.74 in
Visibility 10.0 miles
Clouds Mostly Cloudy 10000 ft
Dew Point 49 °F
Humidity 55%
Rainfall 0.00 in
Snow Depth 2 in
UV 1 out of 12
Pollen 2.90 out of 12
Air Quality Not available.
Flu Activity Sporadic
METAR KPDT 202153Z 28010KT 10SM BKN100 19/09 A2975 RMK AO2 SLP069 T01940089

More Conditions Fewer Conditions

10-Day Weather Forecast

Almanac

Astronomy

Oct. 20, 2014 Rise Set
Actual Time 7:17 AM PDT 5:59 PM PDT
Civil Twilight 6:47 AM PDT 6:29 PM PDT
Nautical Twilight 6:12 AM PDT 7:04 PM PDT
Astronomical Twilight 5:38 AM PDT 7:38 PM PDT
Moon 4:01 AM PDT 4:32 PM PDT
Length of Visible Light 11h 42m
Length of Day
10h 41m
Waning Crescent, 9% of the Moon is Illuminated
Today
Waning Crescent
Oct 23
New
Oct 30
First Quarter
Nov 6
Full
Nov 14
Last Quarter

Today's Extremes

State Highs State Lows

Community

WunderPhotos

Upload Photos

1,763,541 photos uploaded!

WunderBlogs® & News

By Dr. Jeff Masters
Director of Meteorology, Weather Underground
By Kari Strenfel
Meteorologist, Weather Underground
By Christopher C. Burt
Weather Historian, Weather Underground
October 20, 2014
October 20, 2014
October 20, 2014

Nearby

Snow Depth

Station Depth Elevation
Emigrant Springs 2 in 3925 ft
Bowman Springs 0 in 4580 ft
Lucky Strike 1 in 5050 ft
Beaver Reservoir 0 in 5150 ft
Arbuckle Mountain 0 in 5400 ft

Earthquake Activity

City Distance Mag. Time & Date
No recent earthquake activity has been reported nearby.
Minimum magnitude displayed is 2.5.

Coastal Water Temperatures

Place Temperature
No Stations Reporting

Nearby Weather Stations